createdAt,value
2022-11-15T00:01:03.413Z,96377.78
2022-11-15T00:03:31.496Z,96373.91
2022-11-15T00:06:04.694Z,96376.56
2022-11-15T00:08:34.618Z,96364.09
2022-11-15T00:11:04.270Z,96364.09
2022-11-15T00:13:32.395Z,96369.56
2022-11-15T00:16:02.423Z,96358.28
2022-11-15T00:18:31.086Z,96365.03
2022-11-15T00:21:06.481Z,96369.94
2022-11-15T00:23:36.302Z,96365.06
2022-11-15T00:26:04.184Z,96363.44
2022-11-15T00:28:32.275Z,96356.66
2022-11-15T00:31:03.400Z,96357.50
2022-11-15T00:33:31.833Z,96347.28
2022-11-15T00:36:05.072Z,96345.50
2022-11-15T00:38:35.528Z,96337.75
2022-11-15T00:41:09.165Z,96338.97
2022-11-15T00:43:37.735Z,96346.94
2022-11-15T00:46:06.065Z,96338.78
2022-11-15T00:48:34.050Z,96328.75
2022-11-15T00:51:02.144Z,96338.78
2022-11-15T00:53:30.347Z,96339.56
2022-11-15T00:55:59.737Z,96337.78
2022-11-15T00:58:27.492Z,96348.59
2022-11-15T01:00:55.801Z,96352.09
2022-11-15T01:03:23.609Z,96354.91
2022-11-15T01:05:51.287Z,96344.69
2022-11-15T01:08:19.229Z,96350.22
2022-11-15T01:10:46.920Z,96345.06
2022-11-15T01:13:16.342Z,96343.84
2022-11-15T01:15:44.877Z,96337.31
2022-11-15T01:18:12.691Z,96333.28
2022-11-15T01:20:42.847Z,96336.53
2022-11-15T01:23:10.641Z,96330.81
2022-11-15T01:25:38.584Z,96329.56
2022-11-15T01:28:06.897Z,96327.50
2022-11-15T01:30:37.777Z,96321.94
2022-11-15T01:33:05.852Z,96312.94
2022-11-15T01:35:33.594Z,96308.28
2022-11-15T01:38:01.270Z,96305.03
2022-11-15T01:40:29.027Z,96297.66
2022-11-15T01:42:56.742Z,96292.94
2022-11-15T01:45:24.666Z,96282.56
2022-11-15T01:47:55.961Z,96275.63
2022-11-15T01:50:29.011Z,96282.56
2022-11-15T01:52:56.883Z,96276.88
2022-11-15T01:55:28.141Z,96269.91
2022-11-15T01:58:00.281Z,96266.63
2022-11-15T02:00:27.809Z,96273.38
2022-11-15T02:02:57.082Z,96270.09
2022-11-15T02:05:24.804Z,96267.69
2022-11-15T02:07:53.256Z,96268.28
2022-11-15T02:10:23.277Z,96267.25
2022-11-15T02:12:52.136Z,96266.06
2022-11-15T02:15:20.366Z,96255.66
2022-11-15T02:18:02.659Z,96262.59
2022-11-15T02:20:45.182Z,96261.38
2022-11-15T02:23:34.097Z,96268.56
2022-11-15T02:26:22.143Z,96261.41
2022-11-15T02:29:03.675Z,96263.41
2022-11-15T02:31:42.449Z,96261.38
2022-11-15T02:34:18.557Z,96256.88
2022-11-15T02:36:57.415Z,96258.88
2022-11-15T02:39:31.141Z,96254.59
2022-11-15T02:42:04.900Z,96251.88
2022-11-15T02:44:38.133Z,96240.41
2022-11-15T02:47:17.432Z,96232.63
2022-11-15T02:49:49.326Z,96235.25
2022-11-15T02:52:18.692Z,96223.81
2022-11-15T02:54:55.872Z,96227.50
2022-11-15T02:57:34.037Z,96234.97
2022-11-15T03:00:07.529Z,96224.03
2022-11-15T03:03:19.373Z,96202.34
2022-11-15T03:05:55.570Z,96210.09
2022-11-15T03:08:33.601Z,96205.63
2022-11-15T03:11:09.401Z,96209.72
2022-11-15T03:13:48.585Z,96216.25
2022-11-15T03:16:22.446Z,96205.09
2022-11-15T03:18:58.302Z,96206.53
2022-11-15T03:21:27.689Z,96216.78
2022-11-15T03:23:57.571Z,96208.59
2022-11-15T03:26:27.104Z,96193.53
2022-11-15T03:28:59.260Z,96211.84
2022-11-15T03:31:51.529Z,96215.94
2022-11-15T03:34:28.199Z,96215.72
2022-11-15T03:36:56.299Z,96198.75
2022-11-15T03:39:25.456Z,96179.59
2022-11-15T03:42:04.942Z,96187.53
2022-11-15T03:44:42.196Z,96197.16
2022-11-15T03:47:14.580Z,96181.03
2022-11-15T03:49:48.522Z,96199.28
2022-11-15T03:52:20.442Z,96199.53
2022-11-15T03:54:56.564Z,96178.22
2022-11-15T03:57:24.476Z,96205.50
2022-11-15T03:59:52.203Z,96209.59
2022-11-15T04:02:20.366Z,96215.34
2022-11-15T04:04:49.450Z,96210.25
2022-11-15T04:07:17.296Z,96193.94
2022-11-15T04:10:03.081Z,96198.84
2022-11-15T04:12:34.117Z,96188.47
2022-11-15T04:15:09.968Z,96183.75
2022-11-15T04:17:40.138Z,96190.47
2022-11-15T04:20:29.354Z,96191.69
2022-11-15T04:23:15.251Z,96195.97
2022-11-15T04:25:43.622Z,96191.31
2022-11-15T04:28:11.599Z,96188.03
2022-11-15T04:30:39.729Z,96183.75
2022-11-15T04:33:07.552Z,96187.81
2022-11-15T04:35:37.215Z,96177.81
2022-11-15T04:38:07.247Z,96160.66
2022-11-15T04:40:35.186Z,96174.53
2022-11-15T04:43:04.064Z,96185.19
2022-11-15T04:45:32.427Z,96172.56
2022-11-15T04:48:00.565Z,96169.34
2022-11-15T04:50:28.349Z,96176.69
2022-11-15T04:52:57.736Z,96173.25
2022-11-15T04:55:25.607Z,96168.34
2022-11-15T04:58:00.551Z,96170.63
2022-11-15T05:00:29.527Z,96166.94
2022-11-15T05:03:15.053Z,96169.38
2022-11-15T05:05:43.228Z,96168.16
2022-11-15T05:08:12.262Z,96159.81
2022-11-15T05:10:39.978Z,96162.47
2022-11-15T05:13:07.681Z,96159.19
2022-11-15T05:15:35.438Z,96138.63
2022-11-15T05:18:03.512Z,96148.38
2022-11-15T05:20:31.293Z,96148.56
2022-11-15T05:22:59.074Z,96144.09
2022-11-15T05:25:28.578Z,96142.88
2022-11-15T05:27:56.547Z,96143.28
2022-11-15T05:30:24.289Z,96136.75
2022-11-15T05:32:52.654Z,96123.28
2022-11-15T05:35:27.288Z,96137.97
2022-11-15T05:37:55.052Z,96133.06
2022-11-15T05:40:22.890Z,96122.91
2022-11-15T05:42:52.426Z,96123.31
2022-11-15T05:45:26.406Z,96128.19
2022-11-15T05:47:56.129Z,96121.69
2022-11-15T05:50:23.897Z,96119.03
2022-11-15T05:52:52.541Z,96124.94
2022-11-15T05:55:20.527Z,96131.06
2022-11-15T05:57:48.378Z,96125.34
2022-11-15T06:00:17.958Z,96133.91
2022-11-15T06:02:45.680Z,96127.78
2022-11-15T06:05:13.384Z,96123.31
2022-11-15T06:07:41.469Z,96117.38
2022-11-15T06:10:10.607Z,96116.78
2022-11-15T06:12:38.439Z,96109.72
2022-11-15T06:15:06.835Z,96121.94
2022-11-15T06:17:35.921Z,96125.00
2022-11-15T06:20:04.377Z,96126.81
2022-11-15T06:22:32.402Z,96121.53
2022-11-15T06:25:05.017Z,96125.50
2022-11-15T06:27:33.321Z,96112.34
2022-11-15T06:30:01.060Z,96120.09
2022-11-15T06:32:28.752Z,96120.31
2022-11-15T06:34:58.034Z,96123.16
2022-11-15T06:37:25.854Z,96121.09
2022-11-15T06:39:53.593Z,96110.91
2022-11-15T06:42:21.509Z,96108.09
2022-11-15T06:44:49.568Z,96113.78
2022-11-15T06:47:17.295Z,96112.50
2022-11-15T06:49:45.048Z,96105.50
2022-11-15T06:52:14.207Z,96105.63
2022-11-15T06:54:42.018Z,96107.41
2022-11-15T06:57:09.691Z,96098.03
2022-11-15T06:59:40.498Z,96117.22
2022-11-15T07:02:12.464Z,96112.00
2022-11-15T07:04:40.197Z,96114.56
2022-11-15T07:07:08.153Z,96118.53
2022-11-15T07:09:37.220Z,96114.41
2022-11-15T07:12:07.836Z,96113.25
2022-11-15T07:14:35.948Z,96107.38
2022-11-15T07:17:06.509Z,96106.66
2022-11-15T07:19:34.298Z,96109.91
2022-11-15T07:22:02.549Z,96111.50
2022-11-15T07:24:30.295Z,96113.25
2022-11-15T07:26:59.577Z,96115.72
2022-11-15T07:29:27.554Z,96101.75
2022-11-15T07:31:55.539Z,96111.72
2022-11-15T07:34:23.281Z,96118.25
2022-11-15T07:36:51.061Z,96113.50
2022-11-15T07:39:18.737Z,96116.94
2022-11-15T07:41:48.782Z,96121.72
2022-11-15T07:44:18.168Z,96126.31
2022-11-15T07:46:45.935Z,96119.09
2022-11-15T07:49:13.747Z,96114.72
2022-11-15T07:51:41.527Z,96115.41
2022-11-15T07:54:09.279Z,96117.44
2022-11-15T07:56:36.957Z,96113.97
2022-11-15T07:59:04.673Z,96104.22
2022-11-15T08:01:33.917Z,96092.38
2022-11-15T08:04:01.958Z,96093.81
2022-11-15T08:06:29.989Z,96089.81
2022-11-15T08:08:57.803Z,96095.06
2022-11-15T08:11:25.548Z,96097.84
2022-11-15T08:13:53.286Z,96098.47
2022-11-15T08:16:21.410Z,96086.72
2022-11-15T08:18:50.681Z,96078.31
2022-11-15T08:21:21.516Z,96080.50
2022-11-15T08:23:49.218Z,96082.31
2022-11-15T08:26:17.571Z,96070.78
2022-11-15T08:28:46.042Z,96074.56
2022-11-15T08:31:17.573Z,96070.16
2022-11-15T08:33:46.579Z,96083.69
2022-11-15T08:36:18.087Z,96085.38
2022-11-15T08:38:46.061Z,96065.13
2022-11-15T08:41:18.897Z,96064.03
2022-11-15T08:43:46.606Z,96067.19
2022-11-15T08:46:16.071Z,96063.72
2022-11-15T08:48:43.836Z,96063.16
2022-11-15T08:51:11.568Z,96066.41
2022-11-15T08:53:40.740Z,96073.47
2022-11-15T08:56:09.929Z,96068.03
2022-11-15T08:58:37.882Z,96068.84
2022-11-15T09:01:06.802Z,96083.47
2022-11-15T09:03:34.688Z,96084.59
2022-11-15T09:06:03.194Z,96071.94
2022-11-15T09:08:46.980Z,96074.41
2022-11-15T09:11:21.401Z,96069.72
2022-11-15T09:13:49.130Z,96075.50
2022-11-15T09:16:17.195Z,96072.81
2022-11-15T09:18:44.901Z,96071.75
2022-11-15T09:21:12.862Z,96070.41
2022-11-15T09:23:40.531Z,96074.84
2022-11-15T09:26:08.372Z,96066.88
2022-11-15T09:28:39.073Z,96074.84
2022-11-15T09:31:07.792Z,96061.72
2022-11-15T09:33:36.016Z,96067.53
2022-11-15T09:36:05.428Z,96068.88
2022-11-15T09:38:34.327Z,96067.69
2022-11-15T09:41:36.396Z,96072.69
2022-11-15T09:44:25.868Z,96071.78
2022-11-15T09:47:06.148Z,96071.97
2022-11-15T09:49:34.831Z,96078.91
2022-11-15T09:52:02.810Z,96070.06
2022-11-15T09:57:26.038Z,96060.50
2022-11-15T10:00:23.737Z,96063.75
2022-11-15T10:03:04.700Z,96057.97
2022-11-15T10:05:34.395Z,96059.59
2022-11-15T10:08:08.174Z,96055.72
2022-11-15T10:10:41.454Z,96046.03
2022-11-15T10:13:15.774Z,96047.59
2022-11-15T10:15:48.702Z,96045.94
2022-11-15T10:18:20.120Z,96040.28
2022-11-15T10:20:55.015Z,96039.84
2022-11-15T10:23:24.752Z,96032.72
2022-11-15T10:25:55.103Z,96026.56
2022-11-15T10:28:27.927Z,96019.75
2022-11-15T10:30:59.489Z,96028.84
2022-11-15T10:33:34.644Z,96024.16
2022-11-15T10:36:25.618Z,96019.53
2022-11-15T10:38:57.605Z,96026.88
2022-11-15T10:41:35.932Z,96027.47
2022-11-15T10:44:13.713Z,96021.47
2022-11-15T10:46:47.270Z,96017.13
2022-11-15T10:49:17.741Z,96012.47
2022-11-15T10:51:48.845Z,96012.44
2022-11-15T10:54:23.673Z,96017.75
2022-11-15T10:56:53.418Z,96018.88
2022-11-15T10:59:26.804Z,96013.44
2022-11-15T11:01:57.384Z,96010.81
2022-11-15T11:04:25.717Z,96009.69
2022-11-15T11:06:55.794Z,96007.22
2022-11-15T11:09:33.052Z,95977.72
2022-11-15T11:12:02.238Z,95996.66
2022-11-15T11:14:32.886Z,95985.25
2022-11-15T11:17:07.999Z,95964.28
2022-11-15T11:19:48.534Z,95965.97
2022-11-15T11:22:25.311Z,95946.97
2022-11-15T11:25:16.664Z,95953.41
2022-11-15T11:27:55.050Z,95961.34
2022-11-15T11:30:27.183Z,95946.38
2022-11-15T11:33:09.415Z,95950.31
2022-11-15T11:35:47.333Z,95942.56
2022-11-15T11:38:28.204Z,95944.63
2022-11-15T11:41:04.690Z,95925.44
2022-11-15T11:43:41.522Z,95905.84
2022-11-15T11:46:27.159Z,95897.06
2022-11-15T11:49:00.841Z,95889.69
2022-11-15T11:51:34.955Z,95898.34
2022-11-15T11:54:07.774Z,95906.44
2022-11-15T11:56:38.737Z,95894.47
2022-11-15T11:59:14.552Z,95887.31
2022-11-15T12:01:45.537Z,95894.22
2022-11-15T12:04:20.254Z,95884.50
2022-11-15T12:06:52.772Z,95872.13
2022-11-15T12:09:25.878Z,95862.75
2022-11-15T12:12:00.026Z,95862.22
2022-11-15T12:14:34.702Z,95863.88
2022-11-15T12:17:02.692Z,95862.44
2022-11-15T12:19:32.612Z,95866.50
2022-11-15T12:22:06.200Z,95866.31
2022-11-15T12:24:39.321Z,95867.56
2022-11-15T12:27:23.270Z,95859.00
2022-11-15T12:29:57.719Z,95849.72
2022-11-15T12:32:30.481Z,95851.97
2022-11-15T12:35:01.152Z,95844.59
2022-11-15T12:37:57.213Z,95846.06
2022-11-15T12:40:30.119Z,95846.88
2022-11-15T12:43:05.253Z,95852.03
2022-11-15T12:45:35.175Z,95840.66
2022-11-15T12:48:40.199Z,95833.66
2022-11-15T12:51:09.385Z,95824.38
2022-11-15T12:53:37.324Z,95829.00
2022-11-15T12:56:23.291Z,95815.75
2022-11-15T12:58:53.878Z,95806.59
2022-11-15T13:01:57.665Z,95817.31
2022-11-15T13:04:32.866Z,95803.97
2022-11-15T13:07:04.119Z,95808.88
2022-11-15T13:09:57.286Z,95800.31
2022-11-15T13:12:51.305Z,95799.91
2022-11-15T13:15:43.100Z,95787.41
2022-11-15T13:18:42.215Z,95786.63
2022-11-15T13:21:41.938Z,95774.78
2022-11-15T13:24:17.791Z,95766.81
2022-11-15T13:26:45.715Z,95748.50
2022-11-15T13:29:21.200Z,95755.47
2022-11-15T13:31:49.482Z,95757.59
2022-11-15T13:37:32.017Z,95742.56
2022-11-15T13:40:21.837Z,95739.50
2022-11-15T13:42:49.534Z,95730.31
2022-11-15T13:45:20.164Z,95725.34
2022-11-15T13:47:54.029Z,95729.38
2022-11-15T13:50:25.018Z,95705.72
2022-11-15T13:52:53.483Z,95717.59
2022-11-15T13:55:24.625Z,95706.75
2022-11-15T13:57:56.868Z,95709.47
2022-11-15T14:00:34.507Z,95704.91
2022-11-15T14:03:09.842Z,95705.75
2022-11-15T14:05:37.862Z,95701.44
2022-11-15T14:08:22.855Z,95708.41
2022-11-15T14:11:08.662Z,95709.41
2022-11-15T14:13:36.724Z,95704.28
2022-11-15T14:16:18.698Z,95704.03
2022-11-15T14:18:49.231Z,95709.88
2022-11-15T14:21:18.226Z,95712.28
2022-11-15T14:23:46.811Z,95708.22
2022-11-15T14:26:31.029Z,95708.78
2022-11-15T14:28:58.833Z,95695.13
2022-11-15T14:31:26.490Z,95687.31
2022-11-15T14:33:54.232Z,95684.53
2022-11-15T14:36:23.245Z,95690.66
2022-11-15T14:38:51.255Z,95683.91
2022-11-15T14:41:24.576Z,95681.03
2022-11-15T14:43:55.499Z,95669.72
2022-11-15T14:46:23.248Z,95667.63
2022-11-15T14:48:51.144Z,95652.88
2022-11-15T14:51:20.317Z,95628.09
2022-11-15T14:53:49.017Z,95639.56
2022-11-15T14:56:17.640Z,95638.16
2022-11-15T14:58:45.384Z,95644.22
2022-11-15T15:01:18.413Z,95646.28
2022-11-15T15:03:46.399Z,95645.38
2022-11-15T15:06:17.926Z,95635.47
2022-11-15T15:08:46.761Z,95643.16
2022-11-15T15:11:18.244Z,95642.59
2022-11-15T15:13:45.922Z,95643.59
2022-11-15T15:16:15.061Z,95644.00
2022-11-15T15:18:42.740Z,95635.19
2022-11-15T15:21:22.032Z,95638.31
2022-11-15T15:23:49.775Z,95642.22
2022-11-15T15:26:17.731Z,95646.44
2022-11-15T15:28:45.448Z,95646.31
2022-11-15T15:31:13.781Z,95639.03
2022-11-15T15:33:42.997Z,95643.13
2022-11-15T15:36:13.298Z,95628.16
2022-11-15T15:38:42.323Z,95625.38
2022-11-15T15:41:12.458Z,95626.50
2022-11-15T15:43:41.362Z,95621.22
2022-11-15T15:46:12.260Z,95616.88
2022-11-15T15:48:40.505Z,95607.78
2022-11-15T15:51:16.946Z,95598.19
2022-11-15T15:53:47.942Z,95581.09
2022-11-15T15:56:15.726Z,95578.34
2022-11-15T15:58:43.459Z,95573.06
2022-11-15T16:01:11.209Z,95568.78
2022-11-15T16:03:38.976Z,95569.28
2022-11-15T16:06:07.191Z,95565.13
2022-11-15T16:08:53.233Z,95570.69
2022-11-15T16:11:24.325Z,95569.50
2022-11-15T16:13:52.511Z,95565.22
2022-11-15T16:16:22.359Z,95567.63
2022-11-15T16:18:50.233Z,95556.13
2022-11-15T16:21:17.960Z,95551.84
2022-11-15T16:23:47.028Z,95547.31
2022-11-15T16:26:22.688Z,95538.84
2022-11-15T16:28:50.509Z,95539.28
2022-11-15T16:31:21.037Z,95528.38
2022-11-15T16:33:49.335Z,95524.59
2022-11-15T16:36:26.950Z,95528.00
2022-11-15T16:38:59.406Z,95518.47
2022-11-15T16:41:27.670Z,95523.88
2022-11-15T16:43:55.409Z,95523.94
2022-11-15T16:46:25.792Z,95530.03
2022-11-15T16:48:54.866Z,95523.25
2022-11-15T16:51:24.418Z,95526.69
2022-11-15T16:53:52.406Z,95455.91
2022-11-15T16:56:25.536Z,95518.31
2022-11-15T16:58:54.645Z,95520.41
2022-11-15T17:01:26.860Z,95519.28
2022-11-15T17:03:55.407Z,95506.41
2022-11-15T17:06:24.608Z,95517.19
2022-11-15T17:08:52.845Z,95514.53
2022-11-15T17:11:24.079Z,95508.13
2022-11-15T17:13:52.157Z,95503.09
2022-11-15T17:16:19.910Z,95505.53
2022-11-15T17:18:52.043Z,95513.03
2022-11-15T17:21:21.101Z,95509.75
2022-11-15T17:23:49.277Z,95505.94
2022-11-15T17:26:29.568Z,95511.88
2022-11-15T17:29:01.393Z,95505.41
2022-11-15T17:31:30.653Z,95505.41
2022-11-15T17:33:58.338Z,95501.66
2022-11-15T17:36:26.072Z,95494.72
2022-11-15T17:38:58.220Z,95500.06
2022-11-15T17:41:27.527Z,95496.34
2022-11-15T17:43:57.854Z,95491.28
2022-11-15T17:46:28.109Z,95501.66
2022-11-15T17:48:56.742Z,95493.53
2022-11-15T17:51:24.960Z,95490.84
2022-11-15T17:53:53.292Z,95501.94
2022-11-15T17:56:22.880Z,95503.72
2022-11-15T17:58:51.845Z,95500.00
2022-11-15T18:01:21.080Z,95482.44
2022-11-15T18:03:50.563Z,95469.94
2022-11-15T18:06:19.731Z,95472.38
2022-11-15T18:08:48.861Z,95450.25
2022-11-15T18:11:19.935Z,95434.47
2022-11-15T18:13:52.386Z,95447.31
2022-11-15T18:16:22.301Z,95440.25
2022-11-15T18:18:51.379Z,95452.50
2022-11-15T18:21:21.548Z,95444.91
2022-11-15T18:23:50.297Z,95456.53
2022-11-15T18:26:20.943Z,95444.84
2022-11-15T18:28:50.906Z,95438.41
2022-11-15T18:31:20.688Z,95429.38
2022-11-15T18:33:49.691Z,95432.75
2022-11-15T18:36:20.751Z,95430.38
2022-11-15T18:38:48.619Z,95432.97
2022-11-15T18:41:20.585Z,95431.78
2022-11-15T18:43:50.227Z,95425.38
2022-11-15T18:46:19.719Z,95426.22
2022-11-15T18:48:50.460Z,95415.25
2022-11-15T18:51:22.047Z,95416.22
2022-11-15T18:53:50.379Z,95416.72
2022-11-15T18:56:20.182Z,95408.47
2022-11-15T18:58:49.589Z,95402.88
2022-11-15T19:01:19.460Z,95401.28
2022-11-15T19:03:49.297Z,95400.72
2022-11-15T19:06:19.818Z,95404.38
2022-11-15T19:08:51.008Z,95393.91
2022-11-15T19:11:21.006Z,95385.66
2022-11-15T19:13:49.357Z,95387.03
2022-11-15T19:16:17.373Z,95392.53
2022-11-15T19:18:45.079Z,95382.38
2022-11-15T19:21:15.968Z,95385.09
2022-11-15T19:23:45.274Z,95368.00
2022-11-15T19:26:15.610Z,95365.28
2022-11-15T19:28:44.098Z,95361.25
2022-11-15T19:31:13.869Z,95341.63
2022-11-15T19:33:42.794Z,95353.34
2022-11-15T19:36:13.303Z,95354.00
2022-11-15T19:38:41.890Z,95359.88
2022-11-15T19:41:13.434Z,95358.00
2022-11-15T19:43:41.752Z,95351.38
2022-11-15T19:46:12.775Z,95353.00
2022-11-15T19:48:44.280Z,95343.13
2022-11-15T19:51:16.795Z,95347.09
2022-11-15T19:53:47.464Z,95343.94
2022-11-15T19:56:23.569Z,95341.53
2022-11-15T19:58:52.603Z,95348.75
2022-11-15T20:01:22.667Z,95344.56
2022-11-15T20:03:55.020Z,95348.34
2022-11-15T20:06:27.320Z,95340.34
2022-11-15T20:08:55.623Z,95340.28
2022-11-15T20:11:25.208Z,95336.63
2022-11-15T20:13:53.279Z,95336.16
2022-11-15T20:16:24.424Z,95346.75
2022-11-15T20:18:53.019Z,95357.47
2022-11-15T20:21:25.963Z,95355.53
2022-11-15T20:23:53.909Z,95358.78
2022-11-15T20:26:21.881Z,95352.06
2022-11-15T20:28:51.026Z,95359.84
2022-11-15T20:31:19.111Z,95345.75
2022-11-15T20:33:47.135Z,95353.75
2022-11-15T20:36:16.352Z,95347.91
2022-11-15T20:38:45.447Z,95354.03
2022-11-15T20:41:13.634Z,95353.22
2022-11-15T20:43:44.343Z,95354.88
2022-11-15T20:46:14.149Z,95360.69
2022-11-15T20:48:44.202Z,95359.56
2022-11-15T20:51:14.274Z,95361.75
2022-11-15T20:53:48.039Z,95366.81
2022-11-15T20:56:17.816Z,95362.78
2022-11-15T20:58:47.001Z,95367.38
2022-11-15T21:01:19.836Z,95363.94
2022-11-15T21:03:48.021Z,95367.13
2022-11-15T21:06:17.706Z,95377.03
2022-11-15T21:09:02.742Z,95372.53
2022-11-15T21:11:48.007Z,95378.63
2022-11-15T21:14:15.756Z,95381.06
2022-11-15T21:16:45.159Z,95367.25
2022-11-15T21:19:12.906Z,95369.16
2022-11-15T21:21:41.029Z,95370.47
2022-11-15T21:24:10.713Z,95361.91
2022-11-15T21:26:38.535Z,95358.69
2022-11-15T21:29:06.665Z,95361.34
2022-11-15T21:31:34.438Z,95370.34
2022-11-15T21:34:03.658Z,95359.97
2022-11-15T21:36:31.684Z,95359.69
2022-11-15T21:38:59.475Z,95356.53
2022-11-15T21:41:27.806Z,95363.72
2022-11-15T21:43:58.595Z,95367.63
2022-11-15T21:46:26.557Z,95368.91
2022-11-15T21:48:54.607Z,95371.28
2022-11-15T21:51:24.752Z,95367.47
2022-11-15T21:53:55.489Z,95362.47
2022-11-15T21:56:23.369Z,95362.72
2022-11-15T21:58:51.162Z,95364.81
2022-11-15T22:01:36.889Z,95368.59
2022-11-15T22:04:06.214Z,95375.84
2022-11-15T22:06:35.682Z,95362.53
2022-11-15T22:09:04.154Z,95355.59
2022-11-15T22:11:31.947Z,95356.34
2022-11-15T22:14:00.203Z,95354.75
2022-11-15T22:16:27.939Z,95361.97
2022-11-15T22:18:56.150Z,95366.00
2022-11-15T22:21:24.046Z,95362.53
2022-11-15T22:23:53.139Z,95364.41
2022-11-15T22:26:23.715Z,95366.00
2022-11-15T22:28:56.487Z,95350.13
2022-11-15T22:31:24.210Z,95352.78
2022-11-15T22:33:51.940Z,95349.81
2022-11-15T22:36:19.611Z,95357.88
2022-11-15T22:38:47.349Z,95357.88
2022-11-15T22:41:16.432Z,95361.69
2022-11-15T22:43:44.185Z,95356.41
2022-11-15T22:46:12.048Z,95348.84
2022-11-15T22:48:40.313Z,95343.56
2022-11-15T22:51:08.404Z,95341.34
2022-11-15T22:53:36.238Z,95344.06
2022-11-15T22:56:05.759Z,95349.72
2022-11-15T22:58:35.280Z,95346.16
2022-11-15T23:01:05.384Z,95335.50
2022-11-15T23:03:34.446Z,95339.22
2022-11-15T23:06:03.347Z,95337.31
2022-11-15T23:08:31.829Z,95328.25
2022-11-15T23:11:18.735Z,95343.25
2022-11-15T23:13:48.008Z,95335.03
2022-11-15T23:16:25.854Z,95334.03
2022-11-15T23:18:55.758Z,95319.34
2022-11-15T23:21:43.946Z,95335.09
2022-11-15T23:24:12.905Z,95323.66
2022-11-15T23:26:41.260Z,95322.88
2022-11-15T23:29:12.649Z,95316.44
2022-11-15T23:32:02.133Z,95323.66
2022-11-15T23:34:30.991Z,95314.31
2022-11-15T23:36:58.908Z,95318.03
2022-11-15T23:39:26.752Z,95319.16
2022-11-15T23:41:54.688Z,95309.97
2022-11-15T23:44:23.809Z,95316.59
2022-11-15T23:46:51.591Z,95317.22
2022-11-15T23:49:19.750Z,95316.72
2022-11-15T23:51:47.600Z,95320.56
2022-11-15T23:54:15.958Z,95311.03
2022-11-15T23:56:43.719Z,95318.97
2022-11-15T23:59:11.446Z,95319.97
